sensor_id;sensor_type;location;lat;lon;timestamp;pressure;altitude;pressure_sealevel;temperature;humidity
63009;BME280;49099;28.428;-16.488;2023-05-21T00:01:06;98547.13;;;20.80;50.18
63009;BME280;49099;28.428;-16.488;2023-05-21T00:03:33;98548.00;;;20.84;50.13
63009;BME280;49099;28.428;-16.488;2023-05-21T00:06:02;98542.63;;;20.84;50.29
63009;BME280;49099;28.428;-16.488;2023-05-21T00:08:29;98541.03;;;20.83;50.00
63009;BME280;49099;28.428;-16.488;2023-05-21T00:10:57;98535.31;;;20.85;50.32
63009;BME280;49099;28.428;-16.488;2023-05-21T00:13:24;98532.97;;;20.83;50.76
63009;BME280;49099;28.428;-16.488;2023-05-21T00:15:51;98534.88;;;20.83;50.39
63009;BME280;49099;28.428;-16.488;2023-05-21T00:18:18;98536.78;;;20.82;50.37
63009;BME280;49099;28.428;-16.488;2023-05-21T00:20:45;98536.31;;;20.80;49.83
63009;BME280;49099;28.428;-16.488;2023-05-21T00:23:13;98529.22;;;20.76;49.59
63009;BME280;49099;28.428;-16.488;2023-05-21T00:25:44;98529.09;;;20.72;49.76
63009;BME280;49099;28.428;-16.488;2023-05-21T00:28:12;98528.31;;;20.72;49.71
63009;BME280;49099;28.428;-16.488;2023-05-21T00:30:39;98518.69;;;20.62;49.20
63009;BME280;49099;28.428;-16.488;2023-05-21T00:33:08;98507.81;;;20.58;49.19
63009;BME280;49099;28.428;-16.488;2023-05-21T00:35:36;98515.53;;;20.60;49.40
63009;BME280;49099;28.428;-16.488;2023-05-21T00:38:03;98513.97;;;20.59;49.15
63009;BME280;49099;28.428;-16.488;2023-05-21T00:40:30;98503.72;;;20.52;48.88
63009;BME280;49099;28.428;-16.488;2023-05-21T00:42:58;98502.94;;;20.52;49.00
63009;BME280;49099;28.428;-16.488;2023-05-21T00:45:25;98503.88;;;20.56;48.80
63009;BME280;49099;28.428;-16.488;2023-05-21T00:47:54;98501.63;;;20.58;48.50
63009;BME280;49099;28.428;-16.488;2023-05-21T00:50:21;98497.34;;;20.57;48.38
63009;BME280;49099;28.428;-16.488;2023-05-21T00:52:49;98500.06;;;20.57;48.17
63009;BME280;49099;28.428;-16.488;2023-05-21T00:55:16;98498.00;;;20.54;48.02
63009;BME280;49099;28.428;-16.488;2023-05-21T00:57:44;98499.59;;;20.55;47.69
63009;BME280;49099;28.428;-16.488;2023-05-21T01:00:13;98496.13;;;20.54;46.96
63009;BME280;49099;28.428;-16.488;2023-05-21T01:02:41;98495.31;;;20.54;46.71
63009;BME280;49099;28.428;-16.488;2023-05-21T01:05:10;98491.50;;;20.55;47.18
63009;BME280;49099;28.428;-16.488;2023-05-21T01:07:38;98491.50;;;20.55;46.94
63009;BME280;49099;28.428;-16.488;2023-05-21T01:10:08;98486.91;;;20.55;47.00
63009;BME280;49099;28.428;-16.488;2023-05-21T01:12:37;98492.59;;;20.54;45.36
63009;BME280;49099;28.428;-16.488;2023-05-21T01:15:06;98489.78;;;20.50;45.84
63009;BME280;49099;28.428;-16.488;2023-05-21T01:17:34;98483.47;;;20.46;46.07
63009;BME280;49099;28.428;-16.488;2023-05-21T01:20:01;98479.53;;;20.44;46.03
63009;BME280;49099;28.428;-16.488;2023-05-21T01:25:10;98472.53;;;20.43;44.94
63009;BME280;49099;28.428;-16.488;2023-05-21T01:27:37;98464.00;;;20.41;44.86
63009;BME280;49099;28.428;-16.488;2023-05-21T01:30:05;98469.06;;;20.42;44.72
63009;BME280;49099;28.428;-16.488;2023-05-21T01:32:43;98455.34;;;20.35;45.03
63009;BME280;49099;28.428;-16.488;2023-05-21T01:35:21;98460.53;;;20.40;45.16
63009;BME280;49099;28.428;-16.488;2023-05-21T01:38:03;98463.38;;;20.44;44.39
63009;BME280;49099;28.428;-16.488;2023-05-21T01:43:09;98452.31;;;20.37;45.06
63009;BME280;49099;28.428;-16.488;2023-05-21T01:45:39;98451.19;;;20.38;44.84
63009;BME280;49099;28.428;-16.488;2023-05-21T01:48:08;98453.88;;;20.38;44.15
63009;BME280;49099;28.428;-16.488;2023-05-21T01:50:39;98453.88;;;20.38;43.70
63009;BME280;49099;28.428;-16.488;2023-05-21T01:53:07;98454.34;;;20.40;43.77
63009;BME280;49099;28.428;-16.488;2023-05-21T01:55:34;98450.06;;;20.39;43.48
63009;BME280;49099;28.428;-16.488;2023-05-21T01:58:05;98440.09;;;20.39;43.90
63009;BME280;49099;28.428;-16.488;2023-05-21T02:00:32;98443.09;;;20.38;44.20
63009;BME280;49099;28.428;-16.488;2023-05-21T02:03:00;98443.09;;;20.38;44.42
63009;BME280;49099;28.428;-16.488;2023-05-21T02:05:27;98438.38;;;20.35;42.83
63009;BME280;49099;28.428;-16.488;2023-05-21T02:07:55;98432.53;;;20.33;44.43
63009;BME280;49099;28.428;-16.488;2023-05-21T02:10:22;98426.38;;;20.32;43.61
63009;BME280;49099;28.428;-16.488;2023-05-21T02:12:50;98417.97;;;20.34;43.87
63009;BME280;49099;28.428;-16.488;2023-05-21T02:15:17;98428.91;;;20.28;43.91
63009;BME280;49099;28.428;-16.488;2023-05-21T02:17:45;98420.19;;;20.31;43.68
63009;BME280;49099;28.428;-16.488;2023-05-21T02:20:12;98422.91;;;20.31;44.04
63009;BME280;49099;28.428;-16.488;2023-05-21T02:22:41;98419.72;;;20.29;43.07
63009;BME280;49099;28.428;-16.488;2023-05-21T02:25:10;98417.25;;;20.24;43.40
63009;BME280;49099;28.428;-16.488;2023-05-21T02:27:38;98408.81;;;20.26;43.93
63009;BME280;49099;28.428;-16.488;2023-05-21T02:30:08;98407.09;;;20.21;42.84
63009;BME280;49099;28.428;-16.488;2023-05-21T02:32:35;98400.69;;;20.14;43.16
63009;BME280;49099;28.428;-16.488;2023-05-21T02:35:03;98401.19;;;20.07;43.68
63009;BME280;49099;28.428;-16.488;2023-05-21T02:37:31;98401.41;;;20.02;43.43
63009;BME280;49099;28.428;-16.488;2023-05-21T02:40:02;98400.75;;;20.05;42.94
63009;BME280;49099;28.428;-16.488;2023-05-21T02:42:31;98392.66;;;20.05;42.71
63009;BME280;49099;28.428;-16.488;2023-05-21T02:44:59;98395.03;;;20.07;42.88
63009;BME280;49099;28.428;-16.488;2023-05-21T02:47:26;98396.16;;;20.06;44.00
63009;BME280;49099;28.428;-16.488;2023-05-21T02:49:53;98392.66;;;20.05;43.41
63009;BME280;49099;28.428;-16.488;2023-05-21T02:52:20;98388.72;;;20.02;43.55
63009;BME280;49099;28.428;-16.488;2023-05-21T02:54:50;98388.72;;;20.02;43.52
63009;BME280;49099;28.428;-16.488;2023-05-21T02:57:18;98380.31;;;20.04;43.73
63009;BME280;49099;28.428;-16.488;2023-05-21T02:59:45;98379.66;;;20.07;44.13
63009;BME280;49099;28.428;-16.488;2023-05-21T03:02:12;98377.28;;;20.06;43.59
63009;BME280;49099;28.428;-16.488;2023-05-21T03:04:39;98371.47;;;20.03;43.60
63009;BME280;49099;28.428;-16.488;2023-05-21T03:07:13;98369.09;;;20.02;44.09
63009;BME280;49099;28.428;-16.488;2023-05-21T03:09:40;98371.00;;;20.01;44.63
63009;BME280;49099;28.428;-16.488;2023-05-21T03:12:08;98369.56;;;20.04;44.74
63009;BME280;49099;28.428;-16.488;2023-05-21T03:14:36;98364.28;;;20.08;45.28
63009;BME280;49099;28.428;-16.488;2023-05-21T03:17:06;98355.75;;;20.06;45.59
63009;BME280;49099;28.428;-16.488;2023-05-21T03:19:34;98357.66;;;20.05;45.78
63009;BME280;49099;28.428;-16.488;2023-05-21T03:22:02;98346.44;;;20.03;45.58
63009;BME280;49099;28.428;-16.488;2023-05-21T03:24:30;98338.56;;;19.98;45.61
63009;BME280;49099;28.428;-16.488;2023-05-21T03:26:59;98342.38;;;19.97;45.13
63009;BME280;49099;28.428;-16.488;2023-05-21T03:29:28;98333.84;;;19.95;45.00
63009;BME280;49099;28.428;-16.488;2023-05-21T03:31:56;98333.69;;;19.91;44.58
63009;BME280;49099;28.428;-16.488;2023-05-21T03:34:23;98329.44;;;19.90;44.25
63009;BME280;49099;28.428;-16.488;2023-05-21T03:36:51;98329.66;;;19.85;43.54
63009;BME280;49099;28.428;-16.488;2023-05-21T03:39:18;98325.06;;;19.86;43.57
63009;BME280;49099;28.428;-16.488;2023-05-21T03:41:45;98326.63;;;19.87;42.91
63009;BME280;49099;28.428;-16.488;2023-05-21T03:44:12;98322.13;;;19.91;43.00
63009;BME280;49099;28.428;-16.488;2023-05-21T03:46:39;98326.41;;;19.92;42.18
63009;BME280;49099;28.428;-16.488;2023-05-21T03:49:06;98327.53;;;19.91;41.77
63009;BME280;49099;28.428;-16.488;2023-05-21T03:51:34;98323.59;;;19.88;41.56
63009;BME280;49099;28.428;-16.488;2023-05-21T03:54:01;98333.31;;;19.81;42.17
63009;BME280;49099;28.428;-16.488;2023-05-21T03:56:28;98336.47;;;19.83;42.07
63009;BME280;49099;28.428;-16.488;2023-05-21T03:58:55;98338.34;;;19.82;42.09
63009;BME280;49099;28.428;-16.488;2023-05-21T04:01:22;98334.44;;;19.80;42.59
63009;BME280;49099;28.428;-16.488;2023-05-21T04:03:50;98324.91;;;19.82;43.16
63009;BME280;49099;28.428;-16.488;2023-05-21T04:06:17;98318.09;;;19.85;43.29
63009;BME280;49099;28.428;-16.488;2023-05-21T04:08:44;98326.97;;;19.85;43.08
63009;BME280;49099;28.428;-16.488;2023-05-21T04:11:12;98327.06;;;19.89;43.56
63009;BME280;49099;28.428;-16.488;2023-05-21T04:13:39;98322.94;;;19.91;43.13
63009;BME280;49099;28.428;-16.488;2023-05-21T04:16:06;98317.53;;;19.91;42.99
63009;BME280;49099;28.428;-16.488;2023-05-21T04:18:35;98328.66;;;19.90;43.12
63009;BME280;49099;28.428;-16.488;2023-05-21T04:21:02;98327.75;;;19.86;44.09
63009;BME280;49099;28.428;-16.488;2023-05-21T04:23:29;98325.56;;;19.79;44.23
63009;BME280;49099;28.428;-16.488;2023-05-21T04:25:56;98329.50;;;19.82;44.35
63009;BME280;49099;28.428;-16.488;2023-05-21T04:28:23;98327.25;;;19.84;44.20
63009;BME280;49099;28.428;-16.488;2023-05-21T04:30:54;98325.50;;;19.88;44.26
63009;BME280;49099;28.428;-16.488;2023-05-21T04:33:24;98336.94;;;19.85;44.59
63009;BME280;49099;28.428;-16.488;2023-05-21T04:35:51;98328.88;;;19.85;44.87
63009;BME280;49099;28.428;-16.488;2023-05-21T04:38:19;98328.19;;;19.88;44.78
63009;BME280;49099;28.428;-16.488;2023-05-21T04:40:48;98327.53;;;19.91;45.11
63009;BME280;49099;28.428;-16.488;2023-05-21T04:43:20;98333.50;;;19.96;44.61
63009;BME280;49099;28.428;-16.488;2023-05-21T04:45:52;98334.75;;;19.99;44.62
63009;BME280;49099;28.428;-16.488;2023-05-21T04:48:23;98321.63;;;19.97;44.61
63009;BME280;49099;28.428;-16.488;2023-05-21T04:50:51;98325.16;;;19.89;44.15
63009;BME280;49099;28.428;-16.488;2023-05-21T04:53:19;98327.53;;;19.70;43.91
63009;BME280;49099;28.428;-16.488;2023-05-21T04:55:47;98330.63;;;19.51;44.59
63009;BME280;49099;28.428;-16.488;2023-05-21T04:58:14;98329.28;;;19.36;44.57
63009;BME280;49099;28.428;-16.488;2023-05-21T05:00:44;98325.72;;;19.24;45.83
63009;BME280;49099;28.428;-16.488;2023-05-21T05:03:17;98327.69;;;19.14;45.10
63009;BME280;49099;28.428;-16.488;2023-05-21T05:05:45;98322.03;;;19.07;45.54
63009;BME280;49099;28.428;-16.488;2023-05-21T05:08:13;98323.75;;;19.03;45.50
63009;BME280;49099;28.428;-16.488;2023-05-21T05:10:41;98321.56;;;18.97;44.54
63009;BME280;49099;28.428;-16.488;2023-05-21T05:13:08;98317.34;;;18.87;45.33
63009;BME280;49099;28.428;-16.488;2023-05-21T05:15:36;98321.78;;;18.83;46.01
63009;BME280;49099;28.428;-16.488;2023-05-21T05:18:04;98318.97;;;18.79;46.82
63009;BME280;49099;28.428;-16.488;2023-05-21T05:20:32;98316.41;;;18.83;47.20
63009;BME280;49099;28.428;-16.488;2023-05-21T05:22:59;98315.78;;;18.86;46.89
63009;BME280;49099;28.428;-16.488;2023-05-21T05:25:26;98317.03;;;18.88;46.23
63009;BME280;49099;28.428;-16.488;2023-05-21T05:27:53;98332.47;;;19.00;46.57
63009;BME280;49099;28.428;-16.488;2023-05-21T05:30:20;98323.59;;;19.08;45.96
63009;BME280;49099;28.428;-16.488;2023-05-21T05:32:48;98327.19;;;19.12;45.62
63009;BME280;49099;28.428;-16.488;2023-05-21T05:35:15;98325.00;;;19.14;45.59
63009;BME280;49099;28.428;-16.488;2023-05-21T05:37:42;98327.94;;;19.21;47.50
63009;BME280;49099;28.428;-16.488;2023-05-21T05:40:09;98319.53;;;19.32;46.36
63009;BME280;49099;28.428;-16.488;2023-05-21T05:42:36;98327.38;;;19.37;46.05
63009;BME280;49099;28.428;-16.488;2023-05-21T05:45:04;98328.31;;;19.41;46.54
63009;BME280;49099;28.428;-16.488;2023-05-21T05:47:31;98320.19;;;19.49;46.45
63009;BME280;49099;28.428;-16.488;2023-05-21T05:49:58;98330.16;;;19.58;45.43
63009;BME280;49099;28.428;-16.488;2023-05-21T05:52:25;98335.69;;;19.61;45.60
63009;BME280;49099;28.428;-16.488;2023-05-21T05:54:53;98337.25;;;19.62;45.28
63009;BME280;49099;28.428;-16.488;2023-05-21T05:57:21;98340.38;;;19.64;46.84
63009;BME280;49099;28.428;-16.488;2023-05-21T05:59:50;98339.59;;;19.64;45.43
63009;BME280;49099;28.428;-16.488;2023-05-21T06:02:18;98334.09;;;19.52;44.81
63009;BME280;49099;28.428;-16.488;2023-05-21T06:04:45;98335.88;;;19.47;44.44
63009;BME280;49099;28.428;-16.488;2023-05-21T06:07:12;98345.25;;;19.41;44.52
63009;BME280;49099;28.428;-16.488;2023-05-21T06:09:40;98337.22;;;19.33;44.93
63009;BME280;49099;28.428;-16.488;2023-05-21T06:12:07;98329.22;;;19.24;45.10
63009;BME280;49099;28.428;-16.488;2023-05-21T06:14:41;98331.28;;;19.18;44.96
63009;BME280;49099;28.428;-16.488;2023-05-21T06:17:11;98330.16;;;19.19;45.14
63009;BME280;49099;28.428;-16.488;2023-05-21T06:19:38;98330.50;;;19.18;45.33
63009;BME280;49099;28.428;-16.488;2023-05-21T06:22:05;98329.25;;;19.15;45.14
63009;BME280;49099;28.428;-16.488;2023-05-21T06:24:33;98332.56;;;19.12;46.28
63009;BME280;49099;28.428;-16.488;2023-05-21T06:27:00;98328.31;;;19.11;45.25
63009;BME280;49099;28.428;-16.488;2023-05-21T06:29:27;98333.06;;;19.14;45.81
63009;BME280;49099;28.428;-16.488;2023-05-21T06:31:55;98329.72;;;19.17;45.46
63009;BME280;49099;28.428;-16.488;2023-05-21T06:34:22;98335.53;;;19.19;44.95
63009;BME280;49099;28.428;-16.488;2023-05-21T06:36:50;98342.16;;;19.31;44.52
63009;BME280;49099;28.428;-16.488;2023-05-21T06:39:17;98336.09;;;19.34;44.97
63009;BME280;49099;28.428;-16.488;2023-05-21T06:41:44;98344.00;;;19.39;45.30
63009;BME280;49099;28.428;-16.488;2023-05-21T06:44:12;98336.84;;;19.43;44.31
63009;BME280;49099;28.428;-16.488;2023-05-21T06:46:39;98342.69;;;19.45;44.00
63009;BME280;49099;28.428;-16.488;2023-05-21T06:49:06;98344.75;;;19.48;44.03
63009;BME280;49099;28.428;-16.488;2023-05-21T06:51:33;98352.28;;;19.55;43.94
63009;BME280;49099;28.428;-16.488;2023-05-21T06:54:00;98349.13;;;19.61;44.25
63009;BME280;49099;28.428;-16.488;2023-05-21T06:56:27;98352.44;;;19.58;43.85
63009;BME280;49099;28.428;-16.488;2023-05-21T06:58:55;98354.03;;;19.59;44.08
63009;BME280;49099;28.428;-16.488;2023-05-21T07:01:22;98362.19;;;19.71;43.44
63009;BME280;49099;28.428;-16.488;2023-05-21T07:03:49;98360.41;;;19.75;43.78
63009;BME280;49099;28.428;-16.488;2023-05-21T07:06:16;98369.41;;;19.80;44.78
63009;BME280;49099;28.428;-16.488;2023-05-21T07:08:44;98362.91;;;19.81;45.06
63009;BME280;49099;28.428;-16.488;2023-05-21T07:11:12;98366.53;;;19.85;46.65
63009;BME280;49099;28.428;-16.488;2023-05-21T07:13:39;98375.06;;;19.87;48.53
63009;BME280;49099;28.428;-16.488;2023-05-21T07:16:06;98366.16;;;19.95;47.15
63009;BME280;49099;28.428;-16.488;2023-05-21T07:18:33;98369.38;;;20.09;46.38
63009;BME280;49099;28.428;-16.488;2023-05-21T07:21:01;98366.16;;;20.16;46.32
63009;BME280;49099;28.428;-16.488;2023-05-21T07:23:28;98370.34;;;20.25;46.04
63009;BME280;49099;28.428;-16.488;2023-05-21T07:25:55;98379.13;;;20.35;45.81
63009;BME280;49099;28.428;-16.488;2023-05-21T07:28:22;98376.69;;;20.42;45.06
63009;BME280;49099;28.428;-16.488;2023-05-21T07:30:49;98374.91;;;20.46;45.16
63009;BME280;49099;28.428;-16.488;2023-05-21T07:33:17;98383.25;;;20.53;44.98
63009;BME280;49099;28.428;-16.488;2023-05-21T07:35:46;98377.66;;;20.58;44.65
63009;BME280;49099;28.428;-16.488;2023-05-21T07:38:13;98376.78;;;20.66;44.77
63009;BME280;49099;28.428;-16.488;2023-05-21T07:40:40;98386.69;;;20.74;44.33
63009;BME280;49099;28.428;-16.488;2023-05-21T07:43:07;98389.63;;;20.81;43.81
63009;BME280;49099;28.428;-16.488;2023-05-21T07:45:34;98387.06;;;20.85;43.45
63009;BME280;49099;28.428;-16.488;2023-05-21T07:48:02;98387.72;;;20.82;43.68
63009;BME280;49099;28.428;-16.488;2023-05-21T07:50:29;98397.72;;;20.81;43.81
63009;BME280;49099;28.428;-16.488;2023-05-21T07:52:57;98392.59;;;20.89;43.63
63009;BME280;49099;28.428;-16.488;2023-05-21T07:55:24;98393.38;;;20.89;43.58
63009;BME280;49099;28.428;-16.488;2023-05-21T07:57:51;98392.91;;;20.87;43.26
63009;BME280;49099;28.428;-16.488;2023-05-21T08:00:22;98400.31;;;20.90;43.98
63009;BME280;49099;28.428;-16.488;2023-05-21T08:02:49;98400.47;;;20.94;43.33
63009;BME280;49099;28.428;-16.488;2023-05-21T08:05:18;98393.03;;;20.91;44.00
63009;BME280;49099;28.428;-16.488;2023-05-21T08:07:46;98404.41;;;20.96;44.07
63009;BME280;49099;28.428;-16.488;2023-05-21T08:10:14;98413.59;;;20.95;44.40
63009;BME280;49099;28.428;-16.488;2023-05-21T08:12:44;98412.56;;;20.88;45.13
63009;BME280;49099;28.428;-16.488;2023-05-21T08:15:11;98411.09;;;20.78;46.83
63009;BME280;49099;28.428;-16.488;2023-05-21T08:17:38;98417.47;;;20.73;48.23
63009;BME280;49099;28.428;-16.488;2023-05-21T08:20:06;98414.09;;;20.76;48.71
63009;BME280;49099;28.428;-16.488;2023-05-21T08:22:33;98423.75;;;20.77;50.25
63009;BME280;49099;28.428;-16.488;2023-05-21T08:25:00;98420.50;;;20.72;49.86
63009;BME280;49099;28.428;-16.488;2023-05-21T08:27:27;98422.53;;;20.75;49.41
63009;BME280;49099;28.428;-16.488;2023-05-21T08:29:55;98426.94;;;20.79;49.52
63009;BME280;49099;28.428;-16.488;2023-05-21T08:32:22;98433.69;;;20.85;49.58
63009;BME280;49099;28.428;-16.488;2023-05-21T08:34:49;98432.69;;;20.90;49.13
63009;BME280;49099;28.428;-16.488;2023-05-21T08:37:16;98435.91;;;20.83;48.33
63009;BME280;49099;28.428;-16.488;2023-05-21T08:39:44;98437.03;;;20.82;46.11
63009;BME280;49099;28.428;-16.488;2023-05-21T08:45:07;98435.19;;;20.95;46.07
63009;BME280;49099;28.428;-16.488;2023-05-21T08:47:36;98432.47;;;20.95;45.47
63009;BME280;49099;28.428;-16.488;2023-05-21T08:50:11;98436.84;;;21.00;43.84
63009;BME280;49099;28.428;-16.488;2023-05-21T08:52:38;98432.94;;;20.97;45.64
63009;BME280;49099;28.428;-16.488;2023-05-21T08:55:07;98434.88;;;21.09;45.09
63009;BME280;49099;28.428;-16.488;2023-05-21T08:57:35;98439.38;;;21.17;44.11
63009;BME280;49099;28.428;-16.488;2023-05-21T09:00:03;98439.50;;;21.21;44.55
63009;BME280;49099;28.428;-16.488;2023-05-21T09:02:32;98445.25;;;21.31;45.73
63009;BME280;49099;28.428;-16.488;2023-05-21T09:05:00;98449.44;;;21.29;46.23
63009;BME280;49099;28.428;-16.488;2023-05-21T09:07:35;98454.63;;;21.34;46.19
63009;BME280;49099;28.428;-16.488;2023-05-21T09:10:11;98453.16;;;21.36;46.14
63009;BME280;49099;28.428;-16.488;2023-05-21T09:12:39;98458.78;;;21.44;45.92
63009;BME280;49099;28.428;-16.488;2023-05-21T09:15:06;98456.75;;;21.40;45.82
63009;BME280;49099;28.428;-16.488;2023-05-21T09:17:33;98459.47;;;21.40;45.91
63009;BME280;49099;28.428;-16.488;2023-05-21T09:22:52;98458.78;;;21.44;46.74
63009;BME280;49099;28.428;-16.488;2023-05-21T09:25:23;98462.72;;;21.46;46.29
63009;BME280;49099;28.428;-16.488;2023-05-21T09:28:00;98470.16;;;21.49;46.55
63009;BME280;49099;28.428;-16.488;2023-05-21T09:30:27;98472.50;;;21.51;46.67
63009;BME280;49099;28.428;-16.488;2023-05-21T09:32:58;98475.88;;;21.60;47.56
63009;BME280;49099;28.428;-16.488;2023-05-21T09:35:26;98490.50;;;21.59;47.37
63009;BME280;49099;28.428;-16.488;2023-05-21T09:37:54;98477.91;;;21.51;47.37
63009;BME280;49099;28.428;-16.488;2023-05-21T09:40:22;98479.69;;;21.47;47.83
63009;BME280;49099;28.428;-16.488;2023-05-21T09:42:53;98490.16;;;21.60;48.19
63009;BME280;49099;28.428;-16.488;2023-05-21T09:45:25;98493.66;;;21.61;48.99
63009;BME280;49099;28.428;-16.488;2023-05-21T09:47:53;98497.03;;;21.58;48.96
63009;BME280;49099;28.428;-16.488;2023-05-21T09:50:23;98489.03;;;21.49;48.92
63009;BME280;49099;28.428;-16.488;2023-05-21T09:52:50;98497.91;;;21.50;49.56
63009;BME280;49099;28.428;-16.488;2023-05-21T09:55:22;98498.91;;;21.33;50.13
63009;BME280;49099;28.428;-16.488;2023-05-21T09:57:49;98495.34;;;21.20;50.77
63009;BME280;49099;28.428;-16.488;2023-05-21T10:00:21;98491.41;;;21.18;51.32
63009;BME280;49099;28.428;-16.488;2023-05-21T10:02:53;98494.03;;;21.26;51.20
63009;BME280;49099;28.428;-16.488;2023-05-21T10:05:26;98495.63;;;21.27;51.36
63009;BME280;49099;28.428;-16.488;2023-05-21T10:08:01;98499.56;;;21.30;51.79
63009;BME280;49099;28.428;-16.488;2023-05-21T10:10:30;98496.56;;;21.44;51.75
63009;BME280;49099;28.428;-16.488;2023-05-21T10:13:09;98496.13;;;21.41;51.08
63009;BME280;49099;28.428;-16.488;2023-05-21T10:15:43;98498.81;;;21.54;51.17
63009;BME280;49099;28.428;-16.488;2023-05-21T10:18:12;98497.38;;;21.56;50.39
63009;BME280;49099;28.428;-16.488;2023-05-21T10:20:39;98495.00;;;21.67;50.46
63009;BME280;49099;28.428;-16.488;2023-05-21T10:23:07;98500.44;;;21.79;50.72
63009;BME280;49099;28.428;-16.488;2023-05-21T10:25:35;98504.22;;;21.78;50.75
63009;BME280;49099;28.428;-16.488;2023-05-21T10:28:03;98501.31;;;21.83;50.39
63009;BME280;49099;28.428;-16.488;2023-05-21T10:30:33;98498.81;;;21.78;50.31
63009;BME280;49099;28.428;-16.488;2023-05-21T10:33:03;98498.81;;;21.78;51.18
63009;BME280;49099;28.428;-16.488;2023-05-21T10:35:31;98495.03;;;21.79;51.00
63009;BME280;49099;28.428;-16.488;2023-05-21T10:38:03;98505.34;;;21.77;51.44
63009;BME280;49099;28.428;-16.488;2023-05-21T10:40:30;98506.63;;;21.80;51.00
63009;BME280;49099;28.428;-16.488;2023-05-21T11:02:08;98500.16;;;22.45;49.19
63009;BME280;49099;28.428;-16.488;2023-05-21T11:04:37;98499.91;;;22.50;48.99
63009;BME280;49099;28.428;-16.488;2023-05-21T11:07:08;98497.81;;;22.72;48.16
63009;BME280;49099;28.428;-16.488;2023-05-21T11:09:35;98501.25;;;22.85;47.67
63009;BME280;49099;28.428;-16.488;2023-05-21T11:12:03;98501.56;;;22.95;47.28
63009;BME280;49099;28.428;-16.488;2023-05-21T11:14:33;98506.50;;;23.05;47.71
63009;BME280;49099;28.428;-16.488;2023-05-21T11:17:14;98506.50;;;23.05;47.49
63009;BME280;49099;28.428;-16.488;2023-05-21T11:19:44;98503.81;;;23.05;46.44
63009;BME280;49099;28.428;-16.488;2023-05-21T11:22:26;98512.97;;;23.17;46.50
63009;BME280;49099;28.428;-16.488;2023-05-21T11:24:55;98504.63;;;23.22;46.11
63009;BME280;49099;28.428;-16.488;2023-05-21T11:27:36;98506.13;;;23.35;45.67
63009;BME280;49099;28.428;-16.488;2023-05-21T11:30:08;98501.34;;;23.44;46.16
63009;BME280;49099;28.428;-16.488;2023-05-21T11:33:16;98510.78;;;23.50;45.54
63009;BME280;49099;28.428;-16.488;2023-05-21T11:35:27;98507.28;;;23.66;44.50
63009;BME280;49099;28.428;-16.488;2023-05-21T11:37:54;98520.56;;;23.71;44.70
63009;BME280;49099;28.428;-16.488;2023-05-21T11:40:25;98523.34;;;23.58;45.18
63009;BME280;49099;28.428;-16.488;2023-05-21T11:42:54;98518.25;;;23.41;46.17
63009;BME280;49099;28.428;-16.488;2023-05-21T11:45:26;98528.53;;;23.20;47.09
63009;BME280;49099;28.428;-16.488;2023-05-21T11:47:54;98529.09;;;22.97;48.90
63009;BME280;49099;28.428;-16.488;2023-05-21T11:50:22;98513.00;;;22.89;49.01
63009;BME280;49099;28.428;-16.488;2023-05-21T11:52:50;98519.41;;;22.96;48.88
63009;BME280;49099;28.428;-16.488;2023-05-21T11:55:24;98511.59;;;23.23;48.00
63009;BME280;49099;28.428;-16.488;2023-05-21T11:57:52;98512.03;;;23.25;48.98
63009;BME280;49099;28.428;-16.488;2023-05-21T12:00:21;98513.09;;;22.92;50.79
63009;BME280;49099;28.428;-16.488;2023-05-21T12:02:50;98508.63;;;22.72;51.93
63009;BME280;49099;28.428;-16.488;2023-05-21T12:05:18;98506.63;;;22.69;52.31
63009;BME280;49099;28.428;-16.488;2023-05-21T12:07:46;98507.78;;;22.56;53.07
63009;BME280;49099;28.428;-16.488;2023-05-21T12:10:20;98506.25;;;22.42;53.30
63009;BME280;49099;28.428;-16.488;2023-05-21T12:12:47;98500.84;;;22.30;53.59
63009;BME280;49099;28.428;-16.488;2023-05-21T12:15:23;98498.41;;;22.13;54.03
63009;BME280;49099;28.428;-16.488;2023-05-21T12:17:51;98499.50;;;22.00;54.87
63009;BME280;49099;28.428;-16.488;2023-05-21T12:20:21;98492.31;;;21.91;53.82
63009;BME280;49099;28.428;-16.488;2023-05-21T12:22:49;98483.63;;;21.86;53.51
63009;BME280;49099;28.428;-16.488;2023-05-21T12:25:18;98484.44;;;21.86;53.16
63009;BME280;49099;28.428;-16.488;2023-05-21T12:27:47;98481.72;;;21.98;52.88
63009;BME280;49099;28.428;-16.488;2023-05-21T12:30:16;98482.41;;;21.95;53.00
63009;BME280;49099;28.428;-16.488;2023-05-21T12:32:44;98483.41;;;22.28;52.33
63009;BME280;49099;28.428;-16.488;2023-05-21T12:35:21;98487.47;;;22.34;52.33
63009;BME280;49099;28.428;-16.488;2023-05-21T12:37:49;98487.56;;;22.37;52.55
63009;BME280;49099;28.428;-16.488;2023-05-21T12:40:17;98477.22;;;22.27;53.11
63009;BME280;49099;28.428;-16.488;2023-05-21T12:42:44;98488.47;;;22.41;52.56
63009;BME280;49099;28.428;-16.488;2023-05-21T12:45:12;98484.38;;;22.47;52.50
63009;BME280;49099;28.428;-16.488;2023-05-21T12:47:39;98474.91;;;22.53;52.91
63009;BME280;49099;28.428;-16.488;2023-05-21T12:50:07;98480.44;;;22.45;53.64
63009;BME280;49099;28.428;-16.488;2023-05-21T12:52:39;98482.59;;;22.39;53.60
63009;BME280;49099;28.428;-16.488;2023-05-21T12:55:06;98473.41;;;22.16;54.55
63009;BME280;49099;28.428;-16.488;2023-05-21T12:57:36;98491.88;;;22.14;54.73
63009;BME280;49099;28.428;-16.488;2023-05-21T13:00:06;98485.78;;;22.05;54.30
63009;BME280;49099;28.428;-16.488;2023-05-21T13:02:39;98489.38;;;21.96;54.72
63009;BME280;49099;28.428;-16.488;2023-05-21T13:05:09;98481.81;;;22.02;54.08
63009;BME280;49099;28.428;-16.488;2023-05-21T13:07:38;98486.91;;;22.04;53.76
63009;BME280;49099;28.428;-16.488;2023-05-21T13:10:06;98487.59;;;22.13;53.88
63009;BME280;49099;28.428;-16.488;2023-05-21T13:12:33;98482.88;;;22.10;53.94
63009;BME280;49099;28.428;-16.488;2023-05-21T13:15:02;98489.63;;;22.04;53.65
63009;BME280;49099;28.428;-16.488;2023-05-21T13:17:30;98485.13;;;21.95;51.50